sensor_id;sensor_type;location;lat;lon;timestamp;P1;durP1;ratioP1;P2;durP2;ratioP2
79480;SDS011;68944;48.262;14.208;2023-04-29T00:01:15;31.27;;;19.55;;
79480;SDS011;68944;48.262;14.208;2023-04-29T00:03:44;35.00;;;20.95;;
79480;SDS011;68944;48.262;14.208;2023-04-29T00:06:09;33.42;;;20.40;;
79480;SDS011;68944;48.262;14.208;2023-04-29T00:08:38;28.50;;;18.30;;
79480;SDS011;68944;48.262;14.208;2023-04-29T00:11:03;32.38;;;19.17;;
79480;SDS011;68944;48.262;14.208;2023-04-29T00:13:29;33.25;;;20.38;;
79480;SDS011;68944;48.262;14.208;2023-04-29T00:15:54;32.45;;;19.75;;
79480;SDS011;68944;48.262;14.208;2023-04-29T00:18:20;31.60;;;19.67;;
79480;SDS011;68944;48.262;14.208;2023-04-29T00:20:45;28.02;;;17.63;;
79480;SDS011;68944;48.262;14.208;2023-04-29T00:23:11;34.97;;;20.20;;
79480;SDS011;68944;48.262;14.208;2023-04-29T00:25:36;28.77;;;17.98;;
79480;SDS011;68944;48.262;14.208;2023-04-29T00:28:03;31.17;;;19.08;;
79480;SDS011;68944;48.262;14.208;2023-04-29T00:30:31;26.73;;;16.70;;
79480;SDS011;68944;48.262;14.208;2023-04-29T00:32:58;28.67;;;18.17;;
79480;SDS011;68944;48.262;14.208;2023-04-29T00:35:24;27.75;;;16.88;;
79480;SDS011;68944;48.262;14.208;2023-04-29T00:37:50;28.50;;;17.08;;
79480;SDS011;68944;48.262;14.208;2023-04-29T00:40:15;28.33;;;17.70;;
79480;SDS011;68944;48.262;14.208;2023-04-29T00:42:41;32.10;;;18.38;;
79480;SDS011;68944;48.262;14.208;2023-04-29T00:45:07;29.48;;;18.40;;
79480;SDS011;68944;48.262;14.208;2023-04-29T00:47:33;41.00;;;22.80;;
79480;SDS011;68944;48.262;14.208;2023-04-29T00:49:59;34.05;;;20.02;;
79480;SDS011;68944;48.262;14.208;2023-04-29T00:52:25;36.35;;;21.30;;
79480;SDS011;68944;48.262;14.208;2023-04-29T00:54:54;30.35;;;19.38;;
79480;SDS011;68944;48.262;14.208;2023-04-29T00:57:21;29.05;;;18.63;;
79480;SDS011;68944;48.262;14.208;2023-04-29T00:59:46;28.17;;;17.85;;
79480;SDS011;68944;48.262;14.208;2023-04-29T01:02:13;29.33;;;17.48;;
79480;SDS011;68944;48.262;14.208;2023-04-29T01:04:38;31.10;;;19.33;;
79480;SDS011;68944;48.262;14.208;2023-04-29T01:07:08;29.38;;;18.63;;
79480;SDS011;68944;48.262;14.208;2023-04-29T01:09:46;31.52;;;18.08;;
79480;SDS011;68944;48.262;14.208;2023-04-29T01:15:03;86.25;;;29.95;;
79480;SDS011;68944;48.262;14.208;2023-04-29T01:17:40;88.35;;;28.77;;
79480;SDS011;68944;48.262;14.208;2023-04-29T01:20:12;53.92;;;23.92;;
79480;SDS011;68944;48.262;14.208;2023-04-29T01:22:39;123.47;;;28.25;;
79480;SDS011;68944;48.262;14.208;2023-04-29T01:25:05;91.75;;;22.00;;
79480;SDS011;68944;48.262;14.208;2023-04-29T01:27:45;79.82;;;26.13;;
79480;SDS011;68944;48.262;14.208;2023-04-29T01:30:28;269.92;;;36.47;;
79480;SDS011;68944;48.262;14.208;2023-04-29T01:33:11;455.45;;;48.42;;
79480;SDS011;68944;48.262;14.208;2023-04-29T01:38:33;656.20;;;73.57;;
79480;SDS011;68944;48.262;14.208;2023-04-29T01:43:57;498.77;;;53.15;;
79480;SDS011;68944;48.262;14.208;2023-04-29T01:46:24;457.90;;;43.65;;
79480;SDS011;68944;48.262;14.208;2023-04-29T01:48:54;586.88;;;55.35;;
79480;SDS011;68944;48.262;14.208;2023-04-29T01:51:20;403.30;;;30.42;;
79480;SDS011;68944;48.262;14.208;2023-04-29T01:53:49;282.40;;;26.38;;
79480;SDS011;68944;48.262;14.208;2023-04-29T01:56:16;280.10;;;24.20;;
79480;SDS011;68944;48.262;14.208;2023-04-29T01:59:01;519.67;;;36.45;;
79480;SDS011;68944;48.262;14.208;2023-04-29T02:01:46;447.90;;;42.42;;
79480;SDS011;68944;48.262;14.208;2023-04-29T02:04:11;611.88;;;49.45;;
79480;SDS011;68944;48.262;14.208;2023-04-29T02:06:37;479.40;;;29.65;;
79480;SDS011;68944;48.262;14.208;2023-04-29T02:09:03;743.25;;;55.65;;
79480;SDS011;68944;48.262;14.208;2023-04-29T02:11:30;631.60;;;41.40;;
79480;SDS011;68944;48.262;14.208;2023-04-29T02:13:56;456.88;;;40.45;;
79480;SDS011;68944;48.262;14.208;2023-04-29T02:16:22;492.17;;;42.20;;
79480;SDS011;68944;48.262;14.208;2023-04-29T02:18:55;280.50;;;32.33;;
79480;SDS011;68944;48.262;14.208;2023-04-29T02:21:21;664.03;;;50.25;;
79480;SDS011;68944;48.262;14.208;2023-04-29T02:23:46;487.33;;;34.85;;
79480;SDS011;68944;48.262;14.208;2023-04-29T02:26:12;756.35;;;52.13;;
79480;SDS011;68944;48.262;14.208;2023-04-29T02:28:39;741.88;;;54.80;;
79480;SDS011;68944;48.262;14.208;2023-04-29T02:31:05;499.35;;;35.97;;
79480;SDS011;68944;48.262;14.208;2023-04-29T02:33:31;560.80;;;39.72;;
79480;SDS011;68944;48.262;14.208;2023-04-29T02:35:57;695.53;;;43.38;;
79480;SDS011;68944;48.262;14.208;2023-04-29T02:38:23;802.30;;;56.15;;
79480;SDS011;68944;48.262;14.208;2023-04-29T02:40:49;424.17;;;32.65;;
79480;SDS011;68944;48.262;14.208;2023-04-29T02:43:15;160.13;;;25.60;;
79480;SDS011;68944;48.262;14.208;2023-04-29T02:45:43;386.13;;;30.35;;
79480;SDS011;68944;48.262;14.208;2023-04-29T02:48:08;577.50;;;37.03;;
79480;SDS011;68944;48.262;14.208;2023-04-29T02:50:34;251.73;;;26.45;;
79480;SDS011;68944;48.262;14.208;2023-04-29T02:53:00;176.63;;;28.10;;
79480;SDS011;68944;48.262;14.208;2023-04-29T02:55:26;230.85;;;25.15;;
79480;SDS011;68944;48.262;14.208;2023-04-29T02:57:54;478.50;;;32.45;;
79480;SDS011;68944;48.262;14.208;2023-04-29T03:00:19;723.95;;;41.13;;
79480;SDS011;68944;48.262;14.208;2023-04-29T03:02:45;691.47;;;48.88;;
79480;SDS011;68944;48.262;14.208;2023-04-29T03:05:11;466.02;;;27.98;;
79480;SDS011;68944;48.262;14.208;2023-04-29T03:07:36;635.53;;;42.47;;
79480;SDS011;68944;48.262;14.208;2023-04-29T03:10:03;688.90;;;43.33;;
79480;SDS011;68944;48.262;14.208;2023-04-29T03:12:29;122.57;;;31.60;;
79480;SDS011;68944;48.262;14.208;2023-04-29T03:14:54;320.15;;;30.35;;
79480;SDS011;68944;48.262;14.208;2023-04-29T03:17:21;489.80;;;33.35;;
79480;SDS011;68944;48.262;14.208;2023-04-29T03:19:47;293.67;;;21.73;;
79480;SDS011;68944;48.262;14.208;2023-04-29T03:22:13;419.70;;;31.17;;
79480;SDS011;68944;48.262;14.208;2023-04-29T03:24:41;369.80;;;26.50;;
79480;SDS011;68944;48.262;14.208;2023-04-29T03:27:06;266.70;;;26.75;;
79480;SDS011;68944;48.262;14.208;2023-04-29T03:29:32;243.85;;;23.48;;
79480;SDS011;68944;48.262;14.208;2023-04-29T03:31:58;110.45;;;19.92;;
79480;SDS011;68944;48.262;14.208;2023-04-29T03:34:24;126.20;;;21.08;;
79480;SDS011;68944;48.262;14.208;2023-04-29T03:37:04;120.07;;;21.85;;
79480;SDS011;68944;48.262;14.208;2023-04-29T03:39:30;74.65;;;22.23;;
79480;SDS011;68944;48.262;14.208;2023-04-29T03:41:57;119.60;;;23.90;;
79480;SDS011;68944;48.262;14.208;2023-04-29T03:44:23;170.57;;;26.23;;
79480;SDS011;68944;48.262;14.208;2023-04-29T03:46:49;257.88;;;27.08;;
79480;SDS011;68944;48.262;14.208;2023-04-29T03:49:15;137.35;;;21.02;;
79480;SDS011;68944;48.262;14.208;2023-04-29T03:51:41;121.72;;;22.23;;
79480;SDS011;68944;48.262;14.208;2023-04-29T03:54:12;205.18;;;24.35;;
79480;SDS011;68944;48.262;14.208;2023-04-29T03:56:38;64.18;;;19.35;;
79480;SDS011;68944;48.262;14.208;2023-04-29T03:59:03;68.40;;;20.67;;
79480;SDS011;68944;48.262;14.208;2023-04-29T04:01:29;100.85;;;21.77;;
79480;SDS011;68944;48.262;14.208;2023-04-29T04:03:55;97.15;;;20.13;;
79480;SDS011;68944;48.262;14.208;2023-04-29T04:06:20;150.70;;;22.33;;
79480;SDS011;68944;48.262;14.208;2023-04-29T04:08:46;151.85;;;23.48;;
79480;SDS011;68944;48.262;14.208;2023-04-29T04:11:23;44.53;;;19.75;;
79480;SDS011;68944;48.262;14.208;2023-04-29T04:13:54;139.93;;;23.60;;
79480;SDS011;68944;48.262;14.208;2023-04-29T04:16:20;88.38;;;30.67;;
79480;SDS011;68944;48.262;14.208;2023-04-29T04:18:46;112.13;;;21.45;;
79480;SDS011;68944;48.262;14.208;2023-04-29T04:21:11;55.47;;;19.95;;
79480;SDS011;68944;48.262;14.208;2023-04-29T04:23:40;204.32;;;23.92;;
79480;SDS011;68944;48.262;14.208;2023-04-29T04:26:07;237.48;;;24.77;;
79480;SDS011;68944;48.262;14.208;2023-04-29T04:28:51;130.88;;;24.92;;
79480;SDS011;68944;48.262;14.208;2023-04-29T04:31:45;210.20;;;25.83;;
79480;SDS011;68944;48.262;14.208;2023-04-29T04:34:11;108.68;;;23.92;;
79480;SDS011;68944;48.262;14.208;2023-04-29T04:36:37;71.32;;;22.08;;
79480;SDS011;68944;48.262;14.208;2023-04-29T04:39:03;139.10;;;24.42;;
79480;SDS011;68944;48.262;14.208;2023-04-29T04:41:30;98.47;;;23.45;;
79480;SDS011;68944;48.262;14.208;2023-04-29T04:43:56;146.40;;;26.15;;
79480;SDS011;68944;48.262;14.208;2023-04-29T04:46:38;72.72;;;22.75;;
79480;SDS011;68944;48.262;14.208;2023-04-29T04:49:10;71.07;;;21.55;;
79480;SDS011;68944;48.262;14.208;2023-04-29T04:51:44;70.95;;;28.45;;
79480;SDS011;68944;48.262;14.208;2023-04-29T04:54:10;125.80;;;27.88;;
79480;SDS011;68944;48.262;14.208;2023-04-29T04:56:36;103.63;;;26.38;;
79480;SDS011;68944;48.262;14.208;2023-04-29T04:59:03;125.28;;;26.08;;
79480;SDS011;68944;48.262;14.208;2023-04-29T05:01:29;104.78;;;23.02;;
79480;SDS011;68944;48.262;14.208;2023-04-29T05:03:55;127.28;;;23.98;;
79480;SDS011;68944;48.262;14.208;2023-04-29T05:06:21;72.90;;;23.83;;
79480;SDS011;68944;48.262;14.208;2023-04-29T05:08:48;79.88;;;23.80;;
79480;SDS011;68944;48.262;14.208;2023-04-29T05:11:15;45.38;;;21.60;;
79480;SDS011;68944;48.262;14.208;2023-04-29T05:13:42;52.78;;;20.63;;
79480;SDS011;68944;48.262;14.208;2023-04-29T05:16:09;91.45;;;22.65;;
79480;SDS011;68944;48.262;14.208;2023-04-29T05:18:38;51.80;;;22.40;;
79480;SDS011;68944;48.262;14.208;2023-04-29T05:21:05;41.70;;;20.75;;
79480;SDS011;68944;48.262;14.208;2023-04-29T05:23:30;36.40;;;19.02;;
79480;SDS011;68944;48.262;14.208;2023-04-29T05:25:56;37.03;;;18.92;;
79480;SDS011;68944;48.262;14.208;2023-04-29T05:28:22;35.13;;;18.27;;
79480;SDS011;68944;48.262;14.208;2023-04-29T05:30:49;40.10;;;19.63;;
79480;SDS011;68944;48.262;14.208;2023-04-29T05:33:15;38.28;;;19.55;;
79480;SDS011;68944;48.262;14.208;2023-04-29T05:35:42;42.13;;;22.73;;
79480;SDS011;68944;48.262;14.208;2023-04-29T05:38:08;33.15;;;20.58;;
79480;SDS011;68944;48.262;14.208;2023-04-29T05:40:39;37.30;;;20.50;;
79480;SDS011;68944;48.262;14.208;2023-04-29T05:43:29;42.58;;;21.83;;
79480;SDS011;68944;48.262;14.208;2023-04-29T05:45:56;41.55;;;21.23;;
79480;SDS011;68944;48.262;14.208;2023-04-29T05:48:22;40.28;;;21.20;;
79480;SDS011;68944;48.262;14.208;2023-04-29T05:50:49;42.47;;;21.40;;
79480;SDS011;68944;48.262;14.208;2023-04-29T05:53:15;35.03;;;20.98;;
79480;SDS011;68944;48.262;14.208;2023-04-29T05:55:41;30.85;;;19.05;;
79480;SDS011;68944;48.262;14.208;2023-04-29T05:58:09;32.58;;;19.88;;
79480;SDS011;68944;48.262;14.208;2023-04-29T06:00:35;34.28;;;20.08;;
79480;SDS011;68944;48.262;14.208;2023-04-29T06:03:09;36.60;;;20.05;;
79480;SDS011;68944;48.262;14.208;2023-04-29T06:05:36;43.35;;;23.92;;
79480;SDS011;68944;48.262;14.208;2023-04-29T06:08:17;37.47;;;21.08;;
79480;SDS011;68944;48.262;14.208;2023-04-29T06:10:51;32.50;;;19.52;;
79480;SDS011;68944;48.262;14.208;2023-04-29T06:13:17;31.52;;;17.42;;
79480;SDS011;68944;48.262;14.208;2023-04-29T06:15:43;34.63;;;19.05;;
79480;SDS011;68944;48.262;14.208;2023-04-29T06:18:08;28.17;;;17.05;;
79480;SDS011;68944;48.262;14.208;2023-04-29T06:20:34;29.88;;;17.42;;
79480;SDS011;68944;48.262;14.208;2023-04-29T06:23:00;29.63;;;17.63;;
79480;SDS011;68944;48.262;14.208;2023-04-29T06:25:26;28.55;;;17.55;;
79480;SDS011;68944;48.262;14.208;2023-04-29T06:27:52;35.55;;;21.33;;
79480;SDS011;68944;48.262;14.208;2023-04-29T06:32:47;33.83;;;20.10;;
79480;SDS011;68944;48.262;14.208;2023-04-29T06:35:13;30.17;;;18.48;;
79480;SDS011;68944;48.262;14.208;2023-04-29T06:37:57;28.05;;;16.83;;
79480;SDS011;68944;48.262;14.208;2023-04-29T06:40:32;28.83;;;17.80;;
79480;SDS011;68944;48.262;14.208;2023-04-29T06:43:16;26.52;;;16.70;;
79480;SDS011;68944;48.262;14.208;2023-04-29T06:46:08;26.77;;;16.38;;
79480;SDS011;68944;48.262;14.208;2023-04-29T06:51:09;27.15;;;16.98;;
79480;SDS011;68944;48.262;14.208;2023-04-29T06:53:36;29.17;;;17.45;;
79480;SDS011;68944;48.262;14.208;2023-04-29T06:56:01;31.73;;;18.90;;
79480;SDS011;68944;48.262;14.208;2023-04-29T06:58:27;39.65;;;23.25;;
79480;SDS011;68944;48.262;14.208;2023-04-29T07:00:52;31.08;;;19.02;;
79480;SDS011;68944;48.262;14.208;2023-04-29T07:03:20;32.80;;;19.48;;
79480;SDS011;68944;48.262;14.208;2023-04-29T07:05:46;28.75;;;18.73;;
79480;SDS011;68944;48.262;14.208;2023-04-29T07:08:12;26.27;;;17.10;;
79480;SDS011;68944;48.262;14.208;2023-04-29T07:10:38;25.17;;;15.57;;
79480;SDS011;68944;48.262;14.208;2023-04-29T07:13:03;27.27;;;16.65;;
79480;SDS011;68944;48.262;14.208;2023-04-29T07:15:33;26.33;;;16.63;;
79480;SDS011;68944;48.262;14.208;2023-04-29T07:17:59;25.20;;;15.65;;
79480;SDS011;68944;48.262;14.208;2023-04-29T07:20:25;21.75;;;14.95;;
79480;SDS011;68944;48.262;14.208;2023-04-29T07:22:53;21.98;;;15.18;;
79480;SDS011;68944;48.262;14.208;2023-04-29T07:25:19;23.33;;;14.85;;
79480;SDS011;68944;48.262;14.208;2023-04-29T07:27:45;24.85;;;15.60;;
79480;SDS011;68944;48.262;14.208;2023-04-29T07:30:11;24.35;;;16.40;;
79480;SDS011;68944;48.262;14.208;2023-04-29T07:32:37;24.58;;;16.70;;
79480;SDS011;68944;48.262;14.208;2023-04-29T07:35:03;24.55;;;16.08;;
79480;SDS011;68944;48.262;14.208;2023-04-29T07:37:30;24.05;;;16.60;;
79480;SDS011;68944;48.262;14.208;2023-04-29T07:39:55;23.27;;;14.80;;
79480;SDS011;68944;48.262;14.208;2023-04-29T07:42:21;21.80;;;14.63;;
79480;SDS011;68944;48.262;14.208;2023-04-29T07:44:47;25.80;;;14.32;;
79480;SDS011;68944;48.262;14.208;2023-04-29T07:47:13;18.15;;;12.50;;
79480;SDS011;68944;48.262;14.208;2023-04-29T07:49:39;21.05;;;12.80;;
79480;SDS011;68944;48.262;14.208;2023-04-29T07:52:06;17.25;;;11.48;;
79480;SDS011;68944;48.262;14.208;2023-04-29T07:54:34;18.63;;;11.63;;
79480;SDS011;68944;48.262;14.208;2023-04-29T07:57:03;16.63;;;11.02;;
79480;SDS011;68944;48.262;14.208;2023-04-29T07:59:30;16.60;;;11.25;;
79480;SDS011;68944;48.262;14.208;2023-04-29T08:01:56;16.73;;;10.68;;
79480;SDS011;68944;48.262;14.208;2023-04-29T08:04:22;16.35;;;10.55;;
79480;SDS011;68944;48.262;14.208;2023-04-29T08:07:17;13.68;;;8.43;;
79480;SDS011;68944;48.262;14.208;2023-04-29T08:09:43;15.30;;;9.32;;
79480;SDS011;68944;48.262;14.208;2023-04-29T08:12:09;15.23;;;7.85;;
79480;SDS011;68944;48.262;14.208;2023-04-29T08:14:34;11.88;;;6.40;;
79480;SDS011;68944;48.262;14.208;2023-04-29T08:17:00;12.57;;;6.97;;
79480;SDS011;68944;48.262;14.208;2023-04-29T08:19:25;12.20;;;7.30;;
79480;SDS011;68944;48.262;14.208;2023-04-29T08:21:51;11.18;;;6.85;;
79480;SDS011;68944;48.262;14.208;2023-04-29T08:24:17;14.40;;;7.22;;
79480;SDS011;68944;48.262;14.208;2023-04-29T08:26:42;11.43;;;6.05;;
79480;SDS011;68944;48.262;14.208;2023-04-29T08:29:08;10.77;;;5.78;;
79480;SDS011;68944;48.262;14.208;2023-04-29T08:31:33;10.02;;;5.38;;
79480;SDS011;68944;48.262;14.208;2023-04-29T08:33:59;9.07;;;5.18;;
79480;SDS011;68944;48.262;14.208;2023-04-29T08:36:25;11.00;;;5.68;;
79480;SDS011;68944;48.262;14.208;2023-04-29T08:38:52;9.77;;;5.63;;
79480;SDS011;68944;48.262;14.208;2023-04-29T08:41:18;10.10;;;4.95;;
79480;SDS011;68944;48.262;14.208;2023-04-29T08:43:44;10.40;;;4.82;;
79480;SDS011;68944;48.262;14.208;2023-04-29T08:46:10;10.57;;;5.35;;
79480;SDS011;68944;48.262;14.208;2023-04-29T08:48:36;9.68;;;4.63;;
79480;SDS011;68944;48.262;14.208;2023-04-29T08:51:02;9.68;;;4.78;;
79480;SDS011;68944;48.262;14.208;2023-04-29T08:53:28;9.43;;;5.18;;
79480;SDS011;68944;48.262;14.208;2023-04-29T08:55:54;10.38;;;4.80;;
79480;SDS011;68944;48.262;14.208;2023-04-29T08:58:22;10.45;;;5.72;;
79480;SDS011;68944;48.262;14.208;2023-04-29T09:00:50;9.45;;;5.45;;
79480;SDS011;68944;48.262;14.208;2023-04-29T09:03:26;9.98;;;6.07;;
79480;SDS011;68944;48.262;14.208;2023-04-29T09:05:57;10.75;;;5.45;;
79480;SDS011;68944;48.262;14.208;2023-04-29T09:08:27;8.68;;;4.80;;
79480;SDS011;68944;48.262;14.208;2023-04-29T09:10:54;11.50;;;5.35;;
79480;SDS011;68944;48.262;14.208;2023-04-29T09:13:30;12.15;;;5.10;;
79480;SDS011;68944;48.262;14.208;2023-04-29T09:15:56;8.80;;;4.20;;
79480;SDS011;68944;48.262;14.208;2023-04-29T09:18:41;10.05;;;5.35;;
79480;SDS011;68944;48.262;14.208;2023-04-29T09:23:47;11.20;;;5.47;;
79480;SDS011;68944;48.262;14.208;2023-04-29T09:26:14;12.07;;;5.22;;
79480;SDS011;68944;48.262;14.208;2023-04-29T09:28:40;9.73;;;5.07;;
79480;SDS011;68944;48.262;14.208;2023-04-29T09:31:08;9.88;;;4.82;;
79480;SDS011;68944;48.262;14.208;2023-04-29T09:33:48;9.00;;;4.88;;
79480;SDS011;68944;48.262;14.208;2023-04-29T09:39:03;8.43;;;3.50;;
79480;SDS011;68944;48.262;14.208;2023-04-29T09:41:34;7.93;;;3.50;;
79480;SDS011;68944;48.262;14.208;2023-04-29T09:44:06;7.72;;;3.60;;
79480;SDS011;68944;48.262;14.208;2023-04-29T09:46:33;7.50;;;3.30;;
79480;SDS011;68944;48.262;14.208;2023-04-29T09:49:01;10.68;;;3.42;;
79480;SDS011;68944;48.262;14.208;2023-04-29T09:51:29;7.97;;;3.72;;
79480;SDS011;68944;48.262;14.208;2023-04-29T09:53:57;7.97;;;3.78;;
79480;SDS011;68944;48.262;14.208;2023-04-29T09:56:24;8.38;;;3.58;;
79480;SDS011;68944;48.262;14.208;2023-04-29T09:58:53;8.82;;;4.25;;
79480;SDS011;68944;48.262;14.208;2023-04-29T10:01:19;9.43;;;3.45;;
79480;SDS011;68944;48.262;14.208;2023-04-29T10:03:46;7.35;;;3.10;;
79480;SDS011;68944;48.262;14.208;2023-04-29T10:06:13;8.43;;;4.22;;
79480;SDS011;68944;48.262;14.208;2023-04-29T10:08:41;8.35;;;3.83;;
79480;SDS011;68944;48.262;14.208;2023-04-29T10:11:08;8.70;;;4.20;;
79480;SDS011;68944;48.262;14.208;2023-04-29T10:13:35;8.13;;;3.92;;
79480;SDS011;68944;48.262;14.208;2023-04-29T10:18:59;7.85;;;3.85;;
79480;SDS011;68944;48.262;14.208;2023-04-29T10:21:28;8.77;;;4.20;;
79480;SDS011;68944;48.262;14.208;2023-04-29T10:23:58;7.57;;;4.22;;
79480;SDS011;68944;48.262;14.208;2023-04-29T10:26:27;8.30;;;3.90;;
79480;SDS011;68944;48.262;14.208;2023-04-29T10:28:57;7.65;;;3.58;;
79480;SDS011;68944;48.262;14.208;2023-04-29T10:31:24;9.02;;;3.33;;
79480;SDS011;68944;48.262;14.208;2023-04-29T10:33:53;7.95;;;3.70;;
79480;SDS011;68944;48.262;14.208;2023-04-29T10:36:21;8.55;;;3.92;;
79480;SDS011;68944;48.262;14.208;2023-04-29T10:38:50;8.43;;;3.60;;
79480;SDS011;68944;48.262;14.208;2023-04-29T10:41:20;8.48;;;3.10;;
79480;SDS011;68944;48.262;14.208;2023-04-29T10:43:52;7.82;;;3.50;;
79480;SDS011;68944;48.262;14.208;2023-04-29T10:48:50;8.18;;;3.42;;
79480;SDS011;68944;48.262;14.208;2023-04-29T10:51:27;6.75;;;2.90;;
79480;SDS011;68944;48.262;14.208;2023-04-29T10:54:11;6.72;;;3.08;;
79480;SDS011;68944;48.262;14.208;2023-04-29T10:56:39;7.07;;;2.95;;
79480;SDS011;68944;48.262;14.208;2023-04-29T10:59:08;9.15;;;2.80;;
79480;SDS011;68944;48.262;14.208;2023-04-29T11:01:39;8.20;;;3.50;;
79480;SDS011;68944;48.262;14.208;2023-04-29T11:04:15;7.43;;;3.28;;
79480;SDS011;68944;48.262;14.208;2023-04-29T11:06:43;7.97;;;3.33;;
79480;SDS011;68944;48.262;14.208;2023-04-29T11:17:07;6.40;;;2.65;;
79480;SDS011;68944;48.262;14.208;2023-04-29T11:19:44;7.72;;;3.38;;
79480;SDS011;68944;48.262;14.208;2023-04-29T11:22:12;8.13;;;3.47;;
79480;SDS011;68944;48.262;14.208;2023-04-29T11:24:54;7.43;;;3.05;;
79480;SDS011;68944;48.262;14.208;2023-04-29T11:27:30;7.55;;;2.70;;
79480;SDS011;68944;48.262;14.208;2023-04-29T11:29:58;5.72;;;2.20;;
79480;SDS011;68944;48.262;14.208;2023-04-29T11:32:28;7.30;;;2.50;;
79480;SDS011;68944;48.262;14.208;2023-04-29T11:35:08;6.53;;;2.30;;
79480;SDS011;68944;48.262;14.208;2023-04-29T11:37:33;8.35;;;2.40;;
79480;SDS011;68944;48.262;14.208;2023-04-29T11:39:59;6.45;;;2.50;;
79480;SDS011;68944;48.262;14.208;2023-04-29T11:42:27;6.30;;;2.55;;
79480;SDS011;68944;48.262;14.208;2023-04-29T11:44:53;6.00;;;2.80;;
79480;SDS011;68944;48.262;14.208;2023-04-29T11:47:24;12.05;;;2.38;;
79480;SDS011;68944;48.262;14.208;2023-04-29T11:50:03;6.38;;;2.10;;
79480;SDS011;68944;48.262;14.208;2023-04-29T11:52:31;5.93;;;2.20;;
79480;SDS011;68944;48.262;14.208;2023-04-29T11:54:57;6.07;;;2.20;;
79480;SDS011;68944;48.262;14.208;2023-04-29T11:57:26;6.03;;;1.90;;
79480;SDS011;68944;48.262;14.208;2023-04-29T11:59:51;6.75;;;1.80;;
79480;SDS011;68944;48.262;14.208;2023-04-29T12:02:20;19.23;;;2.50;;
79480;SDS011;68944;48.262;14.208;2023-04-29T12:04:47;6.70;;;2.20;;
79480;SDS011;68944;48.262;14.208;2023-04-29T12:07:13;7.90;;;2.13;;
79480;SDS011;68944;48.262;14.208;2023-04-29T12:09:43;5.13;;;2.00;;
79480;SDS011;68944;48.262;14.208;2023-04-29T12:12:09;5.30;;;1.92;;
79480;SDS011;68944;48.262;14.208;2023-04-29T12:14:35;5.40;;;1.52;;
79480;SDS011;68944;48.262;14.208;2023-04-29T12:17:02;5.65;;;1.95;;
79480;SDS011;68944;48.262;14.208;2023-04-29T12:19:28;5.35;;;1.67;;
79480;SDS011;68944;48.262;14.208;2023-04-29T12:21:57;4.57;;;1.65;;
79480;SDS011;68944;48.262;14.208;2023-04-29T12:24:24;8.02;;;2.00;;
79480;SDS011;68944;48.262;14.208;2023-04-29T12:26:49;4.85;;;1.60;;
79480;SDS011;68944;48.262;14.208;2023-04-29T12:29:15;5.40;;;1.73;;
79480;SDS011;68944;48.262;14.208;2023-04-29T12:31:40;4.28;;;1.40;;
79480;SDS011;68944;48.262;14.208;2023-04-29T12:34:07;6.53;;;1.42;;
79480;SDS011;68944;48.262;14.208;2023-04-29T12:36:33;5.00;;;1.73;;
79480;SDS011;68944;48.262;14.208;2023-04-29T12:38:58;5.80;;;1.60;;
79480;SDS011;68944;48.262;14.208;2023-04-29T12:41:38;7.03;;;1.55;;
79480;SDS011;68944;48.262;14.208;2023-04-29T12:44:05;5.07;;;1.60;;
79480;SDS011;68944;48.262;14.208;2023-04-29T12:46:38;5.78;;;1.60;;
79480;SDS011;68944;48.262;14.208;2023-04-29T12:49:05;7.30;;;1.65;;
79480;SDS011;68944;48.262;14.208;2023-04-29T12:51:32;4.32;;;1.20;;
79480;SDS011;68944;48.262;14.208;2023-04-29T12:53:59;4.57;;;1.40;;
79480;SDS011;68944;48.262;14.208;2023-04-29T12:56:27;4.25;;;1.40;;
79480;SDS011;68944;48.262;14.208;2023-04-29T12:58:53;4.60;;;1.60;;
79480;SDS011;68944;48.262;14.208;2023-04-29T13:01:19;4.25;;;1.30;;
79480;SDS011;68944;48.262;14.208;2023-04-29T13:03:47;4.47;;;1.48;;
79480;SDS011;68944;48.262;14.208;2023-04-29T13:06:13;4.90;;;1.70;;
79480;SDS011;68944;48.262;14.208;2023-04-29T13:08:41;3.67;;;1.30;;
79480;SDS011;68944;48.262;14.208;2023-04-29T13:11:06;5.40;;;1.40;;
79480;SDS011;68944;48.262;14.208;2023-04-29T13:13:32;4.90;;;1.38;;
79480;SDS011;68944;48.262;14.208;2023-04-29T13:15:58;5.60;;;1.80;;
79480;SDS011;68944;48.262;14.208;2023-04-29T13:18:24;3.97;;;1.67;;
79480;SDS011;68944;48.262;14.208;2023-04-29T13:20:50;4.15;;;1.40;;
79480;SDS011;68944;48.262;14.208;2023-04-29T13:23:15;4.60;;;1.50;;
79480;SDS011;68944;48.262;14.208;2023-04-29T13:25:41;5.32;;;1.40;;
79480;SDS011;68944;48.262;14.208;2023-04-29T13:28:06;6.50;;;1.48;;
79480;SDS011;68944;48.262;14.208;2023-04-29T13:30:32;4.65;;;1.52;;
79480;SDS011;68944;48.262;14.208;2023-04-29T13:32:57;6.75;;;1.90;;
79480;SDS011;68944;48.262;14.208;2023-04-29T13:35:23;6.50;;;1.92;;
79480;SDS011;68944;48.262;14.208;2023-04-29T13:37:48;5.90;;;1.80;;
79480;SDS011;68944;48.262;14.208;2023-04-29T13:40:14;3.67;;;1.30;;
79480;SDS011;68944;48.262;14.208;2023-04-29T13:42:40;4.80;;;1.70;;
79480;SDS011;68944;48.262;14.208;2023-04-29T13:45:06;5.95;;;2.30;;
79480;SDS011;68944;48.262;14.208;2023-04-29T13:47:31;5.97;;;2.20;;
79480;SDS011;68944;48.262;14.208;2023-04-29T13:49:57;4.55;;;1.65;;
79480;SDS011;68944;48.262;14.208;2023-04-29T13:52:22;6.28;;;1.50;;
79480;SDS011;68944;48.262;14.208;2023-04-29T13:54:48;4.63;;;1.70;;
79480;SDS011;68944;48.262;14.208;2023-04-29T13:57:14;9.85;;;3.90;;
79480;SDS011;68944;48.262;14.208;2023-04-29T13:59:39;8.20;;;1.48;;
79480;SDS011;68944;48.262;14.208;2023-04-29T14:02:05;6.95;;;2.20;;
79480;SDS011;68944;48.262;14.208;2023-04-29T14:04:31;6.15;;;2.30;;
79480;SDS011;68944;48.262;14.208;2023-04-29T14:06:56;5.93;;;1.95;;
79480;SDS011;68944;48.262;14.208;2023-04-29T14:09:22;9.35;;;1.98;;
79480;SDS011;68944;48.262;14.208;2023-04-29T14:11:48;6.57;;;2.10;;
79480;SDS011;68944;48.262;14.208;2023-04-29T14:14:14;6.35;;;2.20;;
79480;SDS011;68944;48.262;14.208;2023-04-29T14:16:41;6.22;;;1.85;;
79480;SDS011;68944;48.262;14.208;2023-04-29T14:19:07;4.65;;;1.58;;
79480;SDS011;68944;48.262;14.208;2023-04-29T14:21:32;4.50;;;1.60;;
79480;SDS011;68944;48.262;14.208;2023-04-29T14:23:58;4.53;;;1.65;;
79480;SDS011;68944;48.262;14.208;2023-04-29T14:26:27;6.50;;;1.67;;
79480;SDS011;68944;48.262;14.208;2023-04-29T14:28:53;5.00;;;1.60;;
79480;SDS011;68944;48.262;14.208;2023-04-29T14:31:27;3.60;;;1.40;;
79480;SDS011;68944;48.262;14.208;2023-04-29T14:34:00;6.32;;;2.00;;
79480;SDS011;68944;48.262;14.208;2023-04-29T14:36:25;4.45;;;1.48;;
79480;SDS011;68944;48.262;14.208;2023-04-29T14:38:51;6.10;;;1.60;;
79480;SDS011;68944;48.262;14.208;2023-04-29T14:41:16;6.00;;;1.60;;
79480;SDS011;68944;48.262;14.208;2023-04-29T14:43:42;4.15;;;1.50;;
79480;SDS011;68944;48.262;14.208;2023-04-29T14:46:08;7.22;;;2.80;;
79480;SDS011;68944;48.262;14.208;2023-04-29T14:48:34;3.70;;;1.40;;
79480;SDS011;68944;48.262;14.208;2023-04-29T14:51:00;7.57;;;2.25;;
79480;SDS011;68944;48.262;14.208;2023-04-29T14:53:25;4.32;;;1.52;;